»·PEaware :: DAL1068 KSLC-KEGE

DAL1068 :: KSLC-KEGE

FLIGHT INFORMATION

Flight Status: Arrived
Operator:
Delta Air Lines
More flights by this operator :: More flights under this callsign
Pilot: Ben F. (2808)
Aircraft: BOEING 727-200
(B722)
More flights by this aircraft type
Origin: KSLC Salt Lake City Intl
United States
Destination: KEGE Eagle Co Regl
United States
More flights between these airports :: More routes between these airports
Route: +SLC4 FFU J116 EKR RLG
File this flight plan on PilotEdge
Remarks:
Altitude:
(Current/Filed)
29,000ft
Speed:
(Current/Filed)
484kts
Departed: 20-Nov-18 10:47 AM
Arrived: 20-Nov-18 11:42 AM
Distance/Time
Traveled:
242nm/0:55
Distance/Time
To Go:
Arrived

Flight Plot

Page will automatically refresh every two minutes.

Flight plan parsing failed; only flown route is shown


Map Options




Map Legend


Flown Route
Filed Route
Departure Airport
Arrival Airport
Navaid (VOR, NDB)
Fix

Horizontal Profiles

Position Reports

Time Latitude Longitude Heading Altitude Ground
Speed
20-Nov-18 10:27 40.788495 -111.980699 283 4239ft 0kts
20-Nov-18 10:28 40.788495 -111.980699 283 4239ft 0kts
20-Nov-18 10:29 40.788495 -111.980699 283 4239ft 0kts
20-Nov-18 10:30 40.788495 -111.980699 283 4239ft 0kts
20-Nov-18 10:31 40.788495 -111.980699 283 4239ft 0kts
20-Nov-18 10:32 40.788495 -111.980699 283 4239ft 0kts
20-Nov-18 10:33 40.788495 -111.980699 283 4239ft 0kts
20-Nov-18 10:34 40.788495 -111.980699 283 4239ft 0kts
20-Nov-18 10:35 40.788495 -111.980699 283 4239ft 0kts
20-Nov-18 10:36 40.788495 -111.980699 283 4239ft 0kts
20-Nov-18 10:37 40.788495 -111.980699 283 4239ft 0kts
20-Nov-18 10:38 40.788452 -111.980453 282 4239ft 2kts
20-Nov-18 10:39 40.788108 -111.980047 24 4239ft 1kts
20-Nov-18 10:40 40.788059 -111.980075 19 4239ft 0kts
20-Nov-18 10:41 40.788059 -111.980075 19 4239ft 0kts
20-Nov-18 10:42 40.788059 -111.980075 19 4239ft 0kts
20-Nov-18 10:43 40.788067 -111.980071 19 4239ft 0kts
20-Nov-18 10:44 40.789695 -111.978532 86 4239ft 0kts
20-Nov-18 10:45 40.791465 -111.977263 354 4239ft 26kts
20-Nov-18 10:46 40.798689 -111.978096 354 4239ft 25kts
20-Nov-18 10:47 40.805453 -111.978447 354 4239ft 23kts
20-Nov-18 10:48 40.807115 -111.978486 31 4239ft 0kts
20-Nov-18 10:49 40.807362 -111.977624 107 4239ft 9kts
20-Nov-18 10:50 40.798145 -111.975857 175 4239ft 127kts
20-Nov-18 10:51 40.752734 -111.968547 171 6102ft 175kts
20-Nov-18 10:52 40.692832 -111.957407 171 7973ft 247kts
20-Nov-18 10:53 40.621207 -111.953994 179 10557ft 288kts
20-Nov-18 10:54 40.531799 -111.951687 178 12548ft 346kts
20-Nov-18 10:55 40.434556 -111.947832 177 15413ft 360kts
20-Nov-18 10:56 40.332933 -111.942164 167 17852ft 375kts
20-Nov-18 10:57 40.273704 -111.841434 93 19886ft 382kts
20-Nov-18 10:58 40.266171 -111.701205 91 21846ft 392kts
20-Nov-18 10:59 40.261038 -111.570684 91 23359ft 404kts
20-Nov-18 11:00 40.255314 -111.423205 91 24981ft 411kts
20-Nov-18 11:01 40.249418 -111.275338 92 26330ft 420kts
20-Nov-18 11:02 40.243108 -111.122016 92 27519ft 429kts
20-Nov-18 11:03 40.236439 -110.964648 92 28534ft 440kts
20-Nov-18 11:04 40.229364 -110.803666 93 29361ft 452kts
20-Nov-18 11:05 40.221706 -110.634806 93 29364ft 482kts
20-Nov-18 11:06 40.213333 -110.455859 93 29361ft 502kts
20-Nov-18 11:07 40.204682 -110.276899 93 29369ft 513kts
20-Nov-18 11:08 40.195430 -110.091597 93 29384ft 514kts
20-Nov-18 11:09 40.185832 -109.905308 93 29385ft 516kts
20-Nov-18 11:10 40.175956 -109.719458 93 29384ft 514kts
20-Nov-18 11:11 40.165810 -109.534146 93 29385ft 512kts
20-Nov-18 11:12 40.155693 -109.350171 93 29386ft 511kts
20-Nov-18 11:13 40.145919 -109.170981 94 29383ft 510kts
20-Nov-18 11:14 40.135578 -108.987350 94 29384ft 509kts
20-Nov-18 11:15 40.124515 -108.803771 94 29381ft 509kts
20-Nov-18 11:16 40.113088 -108.620112 94 29367ft 509kts
20-Nov-18 11:17 40.101327 -108.435893 94 29350ft 509kts
20-Nov-18 11:18 40.089920 -108.261539 94 29346ft 509kts
20-Nov-18 11:19 40.077668 -108.078619 94 29347ft 509kts
20-Nov-18 11:20 40.066085 -107.895713 91 29079ft 504kts
20-Nov-18 11:21 40.059516 -107.717169 92 27123ft 485kts
20-Nov-18 11:22 40.052873 -107.544998 92 25231ft 469kts
20-Nov-18 11:23 40.046106 -107.376175 92 24391ft 474kts
20-Nov-18 11:24 40.052576 -107.208450 66 24065ft 488kts
20-Nov-18 11:25 40.117146 -107.060956 59 22471ft 458kts
20-Nov-18 11:26 40.180014 -106.920967 58 20671ft 440kts
20-Nov-18 11:27 40.238605 -106.785021 71 19338ft 412kts
20-Nov-18 11:28 40.205393 -106.660733 143 19370ft 379kts
20-Nov-18 11:29 40.127355 -106.578065 141 18297ft 330kts
20-Nov-18 11:30 40.063343 -106.508251 140 16612ft 278kts
20-Nov-18 11:31 40.013705 -106.443445 134 15099ft 219kts
20-Nov-18 11:32 39.962205 -106.429720 223 15174ft 221kts
20-Nov-18 11:33 39.907484 -106.478919 215 14010ft 239kts
20-Nov-18 11:34 39.857088 -106.503020 199 13850ft 193kts
20-Nov-18 11:35 39.814060 -106.521480 199 13714ft 205kts
20-Nov-18 11:36 39.754708 -106.546662 199 12234ft 172kts
20-Nov-18 11:37 39.708144 -106.566327 199 12233ft 168kts
20-Nov-18 11:38 39.679678 -106.603802 268 12154ft 169kts
20-Nov-18 11:39 39.675036 -106.654935 260 11755ft 172kts
20-Nov-18 11:40 39.665482 -106.719395 263 9889ft 155kts
20-Nov-18 11:41 39.660486 -106.764074 260 9358ft 146kts
20-Nov-18 11:42 39.652744 -106.825292 262 8294ft 147kts
20-Nov-18 11:43 39.647858 -106.868939 262 7150ft 144kts
20-Nov-18 11:44 39.642518 -106.918321 262 6552ft 102kts
20-Nov-18 11:45 39.640633 -106.926358 80 6552ft 14kts
20-Nov-18 11:46 39.641487 -106.918858 81 6552ft 21kts
20-Nov-18 11:47 39.641420 -106.914402 180 6552ft 6kts
20-Nov-18 11:48 39.640758 -106.914857 171 6552ft 0kts

Navigation Log

Ident Type
Flight plan parsing failed, navigation log unavailable